Time;durP1;ratioP1;P1;durP2;ratioP2;P2;SDS_P1;SDS_P2;PMS_P1;PMS_P2;Temp;Humidity;BMP_temperature;BMP_pressure;BME280_temperature;BME280_humidity;BME280_pressure;Samples;Min_cycle;Max_cycle;Signal;HPM_P1;HPM_P2
2022/11/20 00:01:09;;;;;;;;;;;;;;;23.62;47.32;94425.28;6120472;19;1892;-62
2022/11/20 00:03:13;;;;;;;;;;;;;;;23.60;47.21;94422.03;6120437;19;1855;-62
2022/11/20 00:05:16;;;;;;;;;;;;;;;23.58;47.01;94403.47;6120988;19;1904;-62
2022/11/20 00:07:20;;;;;;;;;;;;;;;23.57;47.30;94395.69;6117300;19;1116;-62
2022/11/20 00:09:26;;;;;;;;;;;;;;;23.56;47.10;94407.47;6094276;19;2104;-61
2022/11/20 00:11:30;;;;;;;;;;;;;;;23.60;46.95;94432.75;6116726;19;2017;-62
2022/11/20 00:13:33;;;;;;;;;;;;;;;23.58;47.03;94426.81;6121918;19;1825;-62
2022/11/20 00:15:36;;;;;;;;;;;;;;;23.57;47.39;94423.31;6116008;19;1002;-61
2022/11/20 00:17:40;;;;;;;;;;;;;;;23.56;47.35;94404.78;6116718;19;1930;-63
2022/11/20 00:19:43;;;;;;;;;;;;;;;23.57;47.15;94393.03;6119657;19;1798;-63
2022/11/20 00:21:46;;;;;;;;;;;;;;;23.58;47.29;94408.84;6091394;19;2007;-63
2022/11/20 00:23:50;;;;;;;;;;;;;;;23.55;47.21;94390.56;6118150;19;2092;-62
2022/11/20 00:25:56;;;;;;;;;;;;;;;23.54;47.25;94398.88;6120170;19;2085;-63
2022/11/20 00:27:59;;;;;;;;;;;;;;;23.58;47.39;94400.00;6117506;19;2086;-63
2022/11/20 00:30:03;;;;;;;;;;;;;;;23.60;46.92;94395.22;6116821;19;1866;-62
2022/11/20 00:32:06;;;;;;;;;;;;;;;23.59;47.38;94390.88;6105015;19;1119;-62
2022/11/20 00:34:09;;;;;;;;;;;;;;;23.58;46.92;94387.41;6105972;19;2034;-62
2022/11/20 00:36:14;;;;;;;;;;;;;;;23.61;46.93;94386.91;6120485;19;2108;-62
2022/11/20 00:38:17;;;;;;;;;;;;;;;23.61;47.12;94375.38;6119583;19;1916;-62
2022/11/20 00:40:20;;;;;;;;;;;;;;;23.61;47.12;94386.09;6119910;19;2137;-63
2022/11/20 00:42:26;;;;;;;;;;;;;;;23.61;46.89;94405.66;6117774;19;1961;-62
2022/11/20 00:44:29;;;;;;;;;;;;;;;23.63;47.21;94397.41;6091694;19;2103;-63
2022/11/20 00:46:33;;;;;;;;;;;;;;;23.61;47.22;94407.53;6117137;19;1749;-63
2022/11/20 00:48:37;;;;;;;;;;;;;;;23.61;47.25;94402.19;6118238;19;2073;-62
2022/11/20 00:50:40;;;;;;;;;;;;;;;23.62;46.88;94403.81;6119580;19;1742;-62
2022/11/20 00:52:43;;;;;;;;;;;;;;;23.59;47.09;94415.84;6119134;19;1948;-62
2022/11/20 00:54:47;;;;;;;;;;;;;;;23.60;47.25;94417.47;6106048;19;1762;-62
2022/11/20 00:56:50;;;;;;;;;;;;;;;23.59;47.17;94412.34;6103719;19;1680;-62
2022/11/20 00:58:56;;;;;;;;;;;;;;;23.61;47.19;94412.91;6118435;19;2144;-63
2022/11/20 01:01:02;;;;;;;;;;;;;;;23.61;46.91;94410.22;6118764;19;1641;-63
2022/11/20 01:03:05;;;;;;;;;;;;;;;23.61;46.99;94407.53;6118702;19;1850;-62
2022/11/20 01:05:09;;;;;;;;;;;;;;;23.61;46.95;94418.28;6119689;19;2100;-62
2022/11/20 01:07:12;;;;;;;;;;;;;;;23.62;46.91;94419.91;6090648;19;2007;-62
2022/11/20 01:09:16;;;;;;;;;;;;;;;23.60;47.24;94404.06;6119306;19;1834;-63
2022/11/20 01:11:21;;;;;;;;;;;;;;;23.58;47.03;94394.63;6118622;19;2048;-63
2022/11/20 01:15:42;;;;;;;;;;;;;;;23.62;47.32;94393.09;6119044;19;1888;-63
2022/11/20 01:17:46;;;;;;;;;;;;;;;23.59;47.31;94394.41;6104726;19;2002;-63
2022/11/20 01:19:51;;;;;;;;;;;;;;;23.59;47.32;94398.94;6103721;19;2322;-63
2022/11/20 01:21:55;;;;;;;;;;;;;;;23.53;47.24;94398.03;6120050;19;1817;-63
2022/11/20 01:23:58;;;;;;;;;;;;;;;23.53;47.47;94390.00;6116878;19;1908;-63
2022/11/20 01:26:02;;;;;;;;;;;;;;;23.59;47.06;94377.47;6117826;19;1964;-63
2022/11/20 01:28:05;;;;;;;;;;;;;;;23.59;47.23;94382.84;6118402;19;2021;-62
2022/11/20 01:30:09;;;;;;;;;;;;;;;23.58;46.99;94382.03;6090033;19;2073;-65
2022/11/20 01:32:15;;;;;;;;;;;;;;;23.58;47.03;94373.97;6117559;19;1991;-63
2022/11/20 01:34:19;;;;;;;;;;;;;;;23.58;46.87;94378.53;6119137;19;1850;-63
2022/11/20 01:36:24;;;;;;;;;;;;;;;23.61;47.26;94364.63;6116225;19;1871;-63
2022/11/20 01:38:27;;;;;;;;;;;;;;;23.60;47.23;94345.06;6117297;19;1935;-63
2022/11/20 01:40:30;;;;;;;;;;;;;;;23.60;46.82;94341.56;6105486;19;2055;-63
2022/11/20 01:44:54;;;;;;;;;;;;;;;23.61;47.21;94343.19;6118547;19;2088;-63
2022/11/20 01:47:00;;;;;;;;;;;;;;;23.60;46.72;94354.97;6117742;19;1902;-63
2022/11/20 01:49:07;;;;;;;;;;;;;;;23.61;46.99;94353.91;6117175;19;1749;-63
2022/11/20 01:51:12;;;;;;;;;;;;;;;23.60;47.07;94355.78;6115046;19;2098;-63
2022/11/20 01:53:17;;;;;;;;;;;;;;;23.56;46.93;94351.16;6090820;19;1840;-63
2022/11/20 01:55:22;;;;;;;;;;;;;;;23.61;46.85;94348.53;6116694;19;1761;-63
2022/11/20 01:57:28;;;;;;;;;;;;;;;23.60;46.90;94346.94;6115586;19;1750;-63
2022/11/20 01:59:32;;;;;;;;;;;;;;;23.61;46.92;94343.19;6118758;19;1719;-63
2022/11/20 02:01:36;;;;;;;;;;;;;;;23.62;47.38;94350.19;6115942;19;2094;-63
2022/11/20 02:03:39;;;;;;;;;;;;;;;23.61;47.35;94344.00;6092700;19;1882;-62
2022/11/20 02:05:48;;;;;;;;;;;;;;;23.62;47.01;94329.53;6116125;19;2074;-62
2022/11/20 02:07:52;;;;;;;;;;;;;;;23.57;47.19;94352.78;6114980;19;2053;-63
2022/11/20 02:09:55;;;;;;;;;;;;;;;23.60;47.09;94355.78;6113973;19;2187;-62
2022/11/20 02:11:59;;;;;;;;;;;;;;;23.62;47.20;94348.31;6117450;19;2050;-62
2022/11/20 02:14:00;;;;;;;;;;;;;;;23.59;47.43;94354.19;6118305;19;1944;-62
2022/11/20 02:16:03;;;;;;;;;;;;;;;23.61;47.58;94372.69;6090860;19;2109;-63
2022/11/20 02:18:08;;;;;;;;;;;;;;;23.61;47.29;94381.53;6114713;19;1833;-63
2022/11/20 02:20:12;;;;;;;;;;;;;;;23.63;47.26;94373.25;6117621;19;1820;-63
2022/11/20 02:22:22;;;;;;;;;;;;;;;23.61;47.48;94365.44;6117900;19;2091;-63
2022/11/20 02:24:28;;;;;;;;;;;;;;;23.62;47.20;94361.72;6117182;19;1965;-63
2022/11/20 02:26:32;;;;;;;;;;;;;;;23.62;47.33;94355.56;6095787;19;2077;-63
2022/11/20 02:28:36;;;;;;;;;;;;;;;23.61;47.42;94349.34;6120767;19;2100;-62
2022/11/20 02:30:39;;;;;;;;;;;;;;;23.61;47.66;94351.22;6118350;19;2026;-63
2022/11/20 02:32:42;;;;;;;;;;;;;;;23.60;47.51;94346.94;6122947;19;1802;-63
2022/11/20 02:34:46;;;;;;;;;;;;;;;23.60;47.76;94371.06;6122097;19;1839;-63
2022/11/20 02:36:51;;;;;;;;;;;;;;;23.62;47.81;94366.28;6121619;19;1816;-63
2022/11/20 02:38:54;;;;;;;;;;;;;;;23.63;47.43;94351.81;6093041;19;2105;-63
2022/11/20 02:41:00;;;;;;;;;;;;;;;23.63;47.63;94368.69;6121500;19;2143;-63
2022/11/20 02:43:03;;;;;;;;;;;;;;;23.64;47.26;94364.16;6121951;19;1903;-64
2022/11/20 02:45:07;;;;;;;;;;;;;;;23.64;47.29;94369.50;6120863;19;1835;-63
2022/11/20 02:47:11;;;;;;;;;;;;;;;23.61;47.38;94368.13;6123339;19;1922;-64
2022/11/20 02:49:16;;;;;;;;;;;;;;;23.60;47.38;94379.13;6108204;19;2254;-64
2022/11/20 02:51:19;;;;;;;;;;;;;;;23.63;47.36;94374.06;6112572;19;1650;-63
2022/11/20 02:53:22;;;;;;;;;;;;;;;23.59;47.79;94383.69;6119575;19;2176;-63
2022/11/20 02:55:26;;;;;;;;;;;;;;;23.61;47.87;94397.63;6122820;19;1596;-63
2022/11/20 02:57:32;;;;;;;;;;;;;;;23.62;47.67;94393.91;6122042;19;1610;-63
2022/11/20 02:59:35;;;;;;;;;;;;;;;23.61;47.51;94402.19;6119137;19;1802;-63
2022/11/20 03:01:38;;;;;;;;;;;;;;;23.62;47.46;94401.16;6095594;19;2050;-63
2022/11/20 03:03:42;;;;;;;;;;;;;;;23.64;47.54;94396.31;6121634;19;1849;-63
2022/11/20 03:05:45;;;;;;;;;;;;;;;23.61;48.02;94405.66;6120084;19;2068;-63
2022/11/20 03:07:48;;;;;;;;;;;;;;;23.62;47.70;94419.91;6120545;19;1837;-62
2022/11/20 03:09:52;;;;;;;;;;;;;;;23.63;47.43;94416.16;6120476;19;1773;-62
2022/11/20 03:11:55;;;;;;;;;;;;;;;23.64;47.55;94420.47;6107391;19;1905;-62
2022/11/20 03:14:03;;;;;;;;;;;;;;;23.63;48.16;94416.16;6104730;19;2089;-62
2022/11/20 03:16:08;;;;;;;;;;;;;;;23.62;48.30;94414.56;6120901;19;1867;-63
2022/11/20 03:18:13;;;;;;;;;;;;;;;23.60;47.88;94413.97;6120903;19;2081;-62
2022/11/20 03:20:17;;;;;;;;;;;;;;;23.63;48.44;94421.53;6121992;19;1646;-62
2022/11/20 03:22:20;;;;;;;;;;;;;;;23.65;48.20;94412.19;6119941;19;2164;-63
2022/11/20 03:24:23;;;;;;;;;;;;;;;23.66;48.50;94434.44;6092187;19;1992;-62
2022/11/20 03:26:28;;;;;;;;;;;;;;;23.66;47.97;94426.41;6120922;19;2115;-62
2022/11/20 03:28:31;;;;;;;;;;;;;;;23.64;48.19;94428.50;6117763;19;1891;-63
2022/11/20 03:30:37;;;;;;;;;;;;;;;23.68;48.30;94424.31;6118257;19;1935;-62
2022/11/20 03:32:40;;;;;;;;;;;;;;;23.68;48.20;94424.31;6119752;19;1661;-62
2022/11/20 03:34:44;;;;;;;;;;;;;;;23.68;48.08;94429.66;6104059;19;2042;-63
2022/11/20 03:36:47;;;;;;;;;;;;;;;23.67;47.91;94434.19;6111551;19;2035;-62
2022/11/20 03:38:51;;;;;;;;;;;;;;;23.66;48.32;94418.34;6119807;19;1841;-63
2022/11/20 03:40:54;;;;;;;;;;;;;;;23.64;48.50;94429.31;6120428;19;2103;-62
2022/11/20 03:42:57;;;;;;;;;;;;;;;23.64;48.53;94434.69;6119252;19;1864;-62
2022/11/20 03:45:00;;;;;;;;;;;;;;;23.64;48.32;94428.50;6120818;19;2084;-62
2022/11/20 03:47:06;;;;;;;;;;;;;;;23.61;48.43;94445.91;6096170;19;2062;-62
2022/11/20 03:49:10;;;;;;;;;;;;;;;23.62;48.59;94431.47;6119449;19;1819;-62
2022/11/20 03:51:14;;;;;;;;;;;;;;;23.64;48.40;94436.56;6118872;19;1833;-62
2022/11/20 03:53:17;;;;;;;;;;;;;;;23.65;48.26;94436.31;6122707;19;1797;-62
2022/11/20 03:55:21;;;;;;;;;;;;;;;23.66;48.24;94426.41;6120676;19;2053;-62
2022/11/20 03:57:24;;;;;;;;;;;;;;;23.69;48.28;94437.44;6107273;19;2110;-62
2022/11/20 03:59:27;;;;;;;;;;;;;;;23.69;48.06;94437.44;6107498;19;1847;-62
2022/11/20 04:01:32;;;;;;;;;;;;;;;23.68;48.55;94435.84;6118424;19;1747;-62
2022/11/20 04:03:38;;;;;;;;;;;;;;;23.72;48.37;94429.97;6118682;19;1842;-67
2022/11/20 04:05:42;;;;;;;;;;;;;;;23.74;48.06;94420.63;6118722;19;1904;-62
2022/11/20 04:07:45;;;;;;;;;;;;;;;23.75;48.44;94424.94;6120128;19;1643;-63
2022/11/20 04:09:48;;;;;;;;;;;;;;;23.75;48.54;94429.47;6092750;19;2087;-62
2022/11/20 04:11:52;;;;;;;;;;;;;;;23.75;47.99;94430.28;6118014;19;1704;-63
2022/11/20 04:13:56;;;;;;;;;;;;;;;23.76;48.23;94441.81;6119492;19;1819;-62
2022/11/20 04:15:59;;;;;;;;;;;;;;;23.76;48.29;94428.41;6120066;19;2029;-62
2022/11/20 04:18:03;;;;;;;;;;;;;;;23.75;48.37;94441.03;6120390;19;2079;-62
2022/11/20 04:20:09;;;;;;;;;;;;;;;23.72;48.57;94448.75;6105377;19;1851;-63
2022/11/20 04:22:13;;;;;;;;;;;;;;;23.72;48.17;94448.75;6105124;19;2121;-62
2022/11/20 04:24:16;;;;;;;;;;;;;;;23.71;48.42;94455.19;6118076;19;1937;-63
2022/11/20 04:26:19;;;;;;;;;;;;;;;23.72;48.16;94451.44;6120465;19;1865;-62
2022/11/20 04:28:23;;;;;;;;;;;;;;;23.72;48.21;94446.88;6115793;19;1896;-62
2022/11/20 04:30:26;;;;;;;;;;;;;;;23.63;48.37;94464.44;6121496;19;1822;-63
2022/11/20 04:32:29;;;;;;;;;;;;;;;23.70;47.94;94467.75;6090825;19;1809;-63
2022/11/20 04:34:33;;;;;;;;;;;;;;;23.73;47.92;94464.59;6116269;19;1981;-63
2022/11/20 04:36:39;;;;;;;;;;;;;;;23.75;48.10;94450.94;6121330;19;1522;-64
2022/11/20 04:38:42;;;;;;;;;;;;;;;23.68;47.89;94456.47;6117278;19;1069;-64
2022/11/20 04:40:45;;;;;;;;;;;;;;;23.71;47.71;94461.34;6119932;19;1908;-64
2022/11/20 04:42:49;;;;;;;;;;;;;;;23.70;47.82;94470.44;6109824;19;2071;-63
2022/11/20 04:44:52;;;;;;;;;;;;;;;23.70;48.13;94459.72;6103300;19;1997;-64
2022/11/20 04:46:55;;;;;;;;;;;;;;;23.67;47.79;94454.84;6119743;19;2018;-64
2022/11/20 04:48:59;;;;;;;;;;;;;;;23.71;48.12;94449.81;6119351;19;1770;-63
2022/11/20 04:51:05;;;;;;;;;;;;;;;23.69;48.40;94436.63;6114979;19;1708;-63
2022/11/20 04:53:11;;;;;;;;;;;;;;;23.71;47.90;94447.94;6118246;19;1823;-63
2022/11/20 04:55:14;;;;;;;;;;;;;;;23.74;48.03;94442.09;6094678;19;2190;-62
2022/11/20 04:57:17;;;;;;;;;;;;;;;23.75;48.18;94438.34;6118433;19;1686;-63
2022/11/20 04:59:21;;;;;;;;;;;;;;;23.75;48.08;94435.66;6119027;19;1652;-64
2022/11/20 05:01:25;;;;;;;;;;;;;;;23.76;48.18;94426.56;6118500;19;2101;-63
2022/11/20 05:03:28;;;;;;;;;;;;;;;23.73;48.21;94447.69;6117510;19;1884;-64
2022/11/20 05:05:32;;;;;;;;;;;;;;;23.65;48.16;94438.19;6109618;19;2116;-62
2022/11/20 05:07:35;;;;;;;;;;;;;;;23.66;48.05;94440.63;6103187;19;2157;-66
2022/11/20 05:09:44;;;;;;;;;;;;;;;23.72;48.22;94444.19;6118603;19;1850;-66
2022/11/20 05:11:47;;;;;;;;;;;;;;;23.76;48.16;94455.25;6118053;19;1992;-65
2022/11/20 05:13:51;;;;;;;;;;;;;;;23.77;48.19;94460.38;6117022;19;1839;-65
2022/11/20 05:15:54;;;;;;;;;;;;;;;23.79;48.12;94466.31;6120342;19;2081;-66
2022/11/20 05:17:57;;;;;;;;;;;;;;;23.80;48.01;94454.50;6092065;19;2085;-66
2022/11/20 05:20:00;;;;;;;;;;;;;;;23.76;47.82;94455.25;6116869;19;1759;-64
2022/11/20 05:22:04;;;;;;;;;;;;;;;23.76;48.00;94447.19;6118883;19;2020;-64
2022/11/20 05:24:07;;;;;;;;;;;;;;;23.79;47.94;94441.34;6115606;19;2148;-65
2022/11/20 05:26:15;;;;;;;;;;;;;;;23.74;47.66;94436.72;6117145;19;1643;-66
2022/11/20 05:28:18;;;;;;;;;;;;;;;23.75;47.94;94424.94;6104158;19;1751;-65
2022/11/20 05:30:22;;;;;;;;;;;;;;;23.76;47.78;94431.94;6105305;19;2289;-67
2022/11/20 05:32:25;;;;;;;;;;;;;;;23.77;47.63;94430.06;6119234;19;1968;-66
2022/11/20 05:34:28;;;;;;;;;;;;;;;23.75;47.92;94418.75;6112850;19;1939;-66
2022/11/20 05:36:32;;;;;;;;;;;;;;;23.77;47.89;94432.75;6115536;19;2161;-65
2022/11/20 05:38:35;;;;;;;;;;;;;;;23.77;47.73;94427.38;6118233;19;2176;-65
2022/11/20 05:40:39;;;;;;;;;;;;;;;23.77;47.68;94433.53;6092588;19;2135;-65
2022/11/20 05:42:45;;;;;;;;;;;;;;;23.79;47.93;94426.06;6116605;19;2090;-64
2022/11/20 05:44:48;;;;;;;;;;;;;;;23.77;47.79;94433.53;6116350;19;1894;-65
2022/11/20 05:46:51;;;;;;;;;;;;;;;23.79;47.66;94423.38;6117488;19;2028;-65
2022/11/20 05:48:54;;;;;;;;;;;;;;;23.73;47.79;94413.63;6118626;19;1834;-66
2022/11/20 05:50:59;;;;;;;;;;;;;;;23.36;46.48;94414.13;6120137;19;2123;-65
2022/11/20 05:53:03;;;;;;;;;;;;;;;22.93;46.70;94396.75;6093975;19;2017;-65
2022/11/20 05:55:06;;;;;;;;;;;;;;;22.62;45.75;94375.81;6116376;19;1908;-66
2022/11/20 05:57:09;;;;;;;;;;;;;;;22.78;46.64;94383.13;6116832;19;2117;-65
2022/11/20 05:59:15;;;;;;;;;;;;;;;22.76;45.78;94396.75;6116114;19;1874;-65
2022/11/20 06:01:20;;;;;;;;;;;;;;;22.99;45.29;94398.50;6121087;19;1924;-65
2022/11/20 06:03:23;;;;;;;;;;;;;;;22.88;45.36;94412.78;6097902;19;2235;-64
2022/11/20 06:05:27;;;;;;;;;;;;;;;22.86;44.87;94409.50;6121873;19;2204;-65
2022/11/20 06:07:30;;;;;;;;;;;;;;;22.66;44.42;94398.41;6121788;19;1610;-64
2022/11/20 06:09:33;;;;;;;;;;;;;;;22.37;43.95;94409.09;6124648;19;2010;-65
2022/11/20 06:11:36;;;;;;;;;;;;;;;22.43;44.01;94408.16;6122751;19;1864;-65
2022/11/20 06:13:40;;;;;;;;;;;;;;;22.44;43.99;94403.59;6120194;19;2033;-65
2022/11/20 06:15:50;;;;;;;;;;;;;;;22.35;43.30;94408.53;6097887;19;1869;-65
2022/11/20 06:17:54;;;;;;;;;;;;;;;22.55;43.32;94411.59;6121567;19;1981;-65
2022/11/20 06:19:57;;;;;;;;;;;;;;;22.75;43.26;94424.59;6123083;19;1821;-63
2022/11/20 06:22:01;;;;;;;;;;;;;;;23.10;43.00;94425.47;6121314;19;1905;-64
2022/11/20 06:24:04;;;;;;;;;;;;;;;23.28;42.39;94419.06;6120647;19;1865;-64
2022/11/20 06:26:08;;;;;;;;;;;;;;;22.82;40.42;94432.47;6095549;19;1774;-65
2022/11/20 06:28:12;;;;;;;;;;;;;;;22.75;41.75;94429.94;6121458;19;1993;-64
2022/11/20 06:30:15;;;;;;;;;;;;;;;22.61;40.15;94435.78;6121267;19;1802;-64
2022/11/20 06:32:21;;;;;;;;;;;;;;;22.51;40.29;94434.53;6122873;19;2061;-67
2022/11/20 06:34:24;;;;;;;;;;;;;;;22.78;40.47;94447.41;6120773;19;1021;-65
2022/11/20 06:36:28;;;;;;;;;;;;;;;22.97;40.38;94446.16;6119834;19;1848;-65
2022/11/20 06:38:31;;;;;;;;;;;;;;;23.12;41.51;94436.75;6095248;19;1569;-64
2022/11/20 06:40:34;;;;;;;;;;;;;;;23.26;41.31;94431.91;6119278;19;1686;-64
2022/11/20 06:42:38;;;;;;;;;;;;;;;23.38;40.68;94436.13;6118386;19;1869;-63
2022/11/20 06:44:41;;;;;;;;;;;;;;;23.42;40.73;94439.97;6119006;19;2095;-63
2022/11/20 06:46:44;;;;;;;;;;;;;;;23.35;40.53;94425.09;6119543;19;1647;-66
2022/11/20 06:48:51;;;;;;;;;;;;;;;22.36;40.14;94444.94;6107564;19;1946;-66
2022/11/20 06:50:54;;;;;;;;;;;;;;;22.44;40.16;94433.84;6107292;19;2154;-64
2022/11/20 06:52:57;;;;;;;;;;;;;;;22.77;39.90;94433.19;6120607;19;2158;-64
2022/11/20 06:55:00;;;;;;;;;;;;;;;22.97;39.79;94427.41;6122316;19;1849;-63
2022/11/20 06:57:04;;;;;;;;;;;;;;;23.11;39.66;94448.53;6120221;19;1845;-62
2022/11/20 06:59:07;;;;;;;;;;;;;;;23.21;40.03;94444.16;6124326;19;1726;-63
2022/11/20 07:01:12;;;;;;;;;;;;;;;23.29;39.50;94447.50;6094169;19;1906;-63
2022/11/20 07:03:16;;;;;;;;;;;;;;;23.34;40.04;94445.72;6120778;19;1790;-63
2022/11/20 07:05:22;;;;;;;;;;;;;;;23.41;40.28;94462.44;6121251;19;1901;-63
2022/11/20 07:07:26;;;;;;;;;;;;;;;23.38;41.33;94460.25;6121201;19;2007;-65
2022/11/20 07:09:29;;;;;;;;;;;;;;;23.47;41.15;94460.69;6118460;19;1152;-64
2022/11/20 07:11:32;;;;;;;;;;;;;;;23.40;41.72;94460.81;6107319;19;1983;-65
2022/11/20 07:13:36;;;;;;;;;;;;;;;23.51;41.63;94469.09;6106129;19;2022;-64
2022/11/20 07:15:39;;;;;;;;;;;;;;;23.60;41.10;94464.94;6122169;19;1838;-65
2022/11/20 07:17:42;;;;;;;;;;;;;;;23.60;41.14;94451.53;6121275;19;1881;-64
2022/11/20 07:19:46;;;;;;;;;;;;;;;23.67;42.18;94460.22;6120352;19;1861;-64
2022/11/20 07:21:52;;;;;;;;;;;;;;;23.65;43.71;94467.69;6118228;19;1758;-66
2022/11/20 07:23:55;;;;;;;;;;;;;;;23.58;43.71;94480.44;6093720;19;1846;-66
2022/11/20 07:25:58;;;;;;;;;;;;;;;23.74;44.05;94462.75;6117579;19;1857;-64
2022/11/20 07:28:03;;;;;;;;;;;;;;;23.77;44.62;94463.06;6120394;19;1727;-65
2022/11/20 07:30:07;;;;;;;;;;;;;;;23.87;44.20;94487.38;6119298;19;2077;-64
2022/11/20 07:32:10;;;;;;;;;;;;;;;23.84;44.65;94455.63;6119725;19;1934;-66
2022/11/20 07:34:14;;;;;;;;;;;;;;;23.83;44.90;94445.97;6106551;19;2075;-65
2022/11/20 07:36:17;;;;;;;;;;;;;;;23.87;45.15;94455.16;6105986;19;2106;-65
2022/11/20 07:38:23;;;;;;;;;;;;;;;23.88;45.20;94462.16;6119653;19;1704;-64
2022/11/20 07:40:26;;;;;;;;;;;;;;;23.83;45.00;94474.69;6115970;19;1074;-64
2022/11/20 07:42:29;;;;;;;;;;;;;;;23.89;45.04;94465.66;6120021;19;2015;-64
2022/11/20 07:44:33;;;;;;;;;;;;;;;23.94;44.74;94476.47;6118649;19;2173;-64
2022/11/20 07:46:36;;;;;;;;;;;;;;;23.92;45.06;94476.69;6091831;19;2337;-63
2022/11/20 07:48:39;;;;;;;;;;;;;;;23.90;45.13;94465.41;6118215;19;1682;-65
2022/11/20 07:50:43;;;;;;;;;;;;;;;23.93;44.73;94485.53;6120425;19;1848;-64
2022/11/20 07:52:46;;;;;;;;;;;;;;;23.92;44.81;94447.16;6118056;19;2096;-64
2022/11/20 07:54:52;;;;;;;;;;;;;;;23.90;45.07;94465.41;6119666;19;2012;-65
2022/11/20 07:56:56;;;;;;;;;;;;;;;23.92;44.78;94452.53;6117549;19;1589;-65
2022/11/20 07:58:59;;;;;;;;;;;;;;;23.93;44.58;94453.34;6091734;19;2220;-64
2022/11/20 08:01:05;;;;;;;;;;;;;;;23.96;44.71;94457.41;6117088;19;1619;-63
2022/11/20 08:03:09;;;;;;;;;;;;;;;23.94;45.09;94468.41;6118410;19;1988;-64
2022/11/20 08:05:12;;;;;;;;;;;;;;;23.95;44.73;94466.53;6117531;19;2132;-65
2022/11/20 08:07:15;;;;;;;;;;;;;;;23.94;44.64;94487.19;6119095;19;1860;-65
2022/11/20 08:09:19;;;;;;;;;;;;;;;23.92;45.14;94479.38;6106041;19;2391;-62
2022/11/20 08:15:56;;;;;;;;;;;;;;;23.94;45.18;94465.72;6118327;19;899;-64
2022/11/20 08:18:03;;;;;;;;;;;;;;;23.95;44.80;94448.56;6116250;19;1857;-64
2022/11/20 08:20:07;;;;;;;;;;;;;;;23.84;45.18;94452.94;6116795;19;1077;-64
2022/11/20 08:22:10;;;;;;;;;;;;;;;23.90;44.87;94449.31;6091444;19;2274;-64
2022/11/20 08:24:13;;;;;;;;;;;;;;;23.94;44.70;94448.81;6118116;19;1626;-64
2022/11/20 08:26:17;;;;;;;;;;;;;;;23.94;44.88;94449.63;6118074;19;1857;-64
2022/11/20 08:28:23;;;;;;;;;;;;;;;23.88;45.06;94443.38;6117393;19;1009;-64
2022/11/20 08:30:26;;;;;;;;;;;;;;;23.93;45.03;94437.25;6117946;19;1895;-63
2022/11/20 08:32:30;;;;;;;;;;;;;;;23.90;44.78;94453.84;6096002;19;2200;-64
2022/11/20 08:34:33;;;;;;;;;;;;;;;23.90;45.19;94462.72;6114369;19;1976;-63
2022/11/20 08:36:37;;;;;;;;;;;;;;;23.88;45.10;94454.09;6115626;19;2163;-65
2022/11/20 08:38:40;;;;;;;;;;;;;;;23.90;45.16;94462.72;6115060;19;1563;-65
2022/11/20 08:41:23;;;;;;;;;;;;;;;23.94;45.00;94459.56;6118101;19;1807;-65
2022/11/20 08:43:07;;;;;;;;;;;;;;;23.83;45.32;94454.03;6114132;19;1727;-65
2022/11/20 08:45:13;;;;;;;;;;;;;;;23.91;45.22;94447.44;6099490;19;1933;-65
2022/11/20 08:47:16;;;;;;;;;;;;;;;23.87;45.04;94448.97;6112617;19;1926;-65
2022/11/20 08:49:21;;;;;;;;;;;;;;;23.92;44.87;94449.84;6119181;19;2083;-65
2022/11/20 08:51:24;;;;;;;;;;;;;;;23.94;45.10;94462.22;6115243;19;1840;-65
2022/11/20 08:53:28;;;;;;;;;;;;;;;23.92;44.91;94494.66;6116979;19;1804;-66
2022/11/20 08:55:31;;;;;;;;;;;;;;;23.95;44.84;94512.16;6089922;19;1495;-66
2022/11/20 08:57:34;;;;;;;;;;;;;;;23.94;45.22;94523.94;6118329;19;2069;-65
2022/11/20 08:59:41;;;;;;;;;;;;;;;23.93;44.88;94520.44;6113979;19;1029;-65
2022/11/20 09:01:46;;;;;;;;;;;;;;;23.91;45.18;94515.31;6116745;19;2091;-66
2022/11/20 09:03:50;;;;;;;;;;;;;;;23.88;44.70;94506.97;6119011;19;1699;-64
2022/11/20 09:05:53;;;;;;;;;;;;;;;23.91;44.98;94509.97;6117906;19;1865;-63
2022/11/20 09:07:58;;;;;;;;;;;;;;;23.94;44.76;94513.22;6092171;19;2078;-64
2022/11/20 09:10:02;;;;;;;;;;;;;;;23.94;44.98;94507.84;6116796;19;2279;-64
2022/11/20 09:12:05;;;;;;;;;;;;;;;23.97;44.71;94491.25;6117676;19;2014;-64
2022/11/20 09:14:08;;;;;;;;;;;;;;;23.95;44.51;94498.72;6117724;19;2016;-64
2022/11/20 09:16:12;;;;;;;;;;;;;;;23.94;44.55;94502.47;6117406;19;1782;-64
2022/11/20 09:18:18;;;;;;;;;;;;;;;23.92;44.63;94495.47;6096978;19;1886;-64
2022/11/20 09:20:21;;;;;;;;;;;;;;;23.88;44.66;94505.09;6115492;19;2031;-64
2022/11/20 09:22:24;;;;;;;;;;;;;;;23.92;44.72;94508.88;6116401;19;1903;-63
2022/11/20 09:24:28;;;;;;;;;;;;;;;23.91;44.91;94504.59;6117207;19;1622;-63
2022/11/20 09:26:31;;;;;;;;;;;;;;;23.94;44.73;94497.13;6115879;19;1849;-63
2022/11/20 09:28:35;;;;;;;;;;;;;;;23.95;44.92;94498.72;6114828;19;2120;-63
2022/11/20 09:30:38;;;;;;;;;;;;;;;23.94;44.56;94499.81;6090713;19;2115;-62
2022/11/20 09:32:42;;;;;;;;;;;;;;;23.92;44.70;94506.19;6118034;19;1779;-62
2022/11/20 09:34:48;;;;;;;;;;;;;;;23.92;44.53;94511.56;6116066;19;1547;-67
2022/11/20 09:36:51;;;;;;;;;;;;;;;23.90;44.68;94494.94;6121978;19;1640;-67
2022/11/20 09:38:56;;;;;;;;;;;;;;;23.92;45.04;94490.09;6120619;19;1884;-65
2022/11/20 09:41:00;;;;;;;;;;;;;;;23.94;44.75;94484.50;6108917;19;1159;-66
2022/11/20 09:43:07;;;;;;;;;;;;;;;23.92;44.56;94479.38;6106773;19;1966;-65
2022/11/20 09:45:19;;;;;;;;;;;;;;;23.77;45.08;94495.25;6121235;19;1865;-65
2022/11/20 09:47:29;;;;;;;;;;;;;;;23.86;44.90;94485.72;6121255;19;2132;-64
2022/11/20 09:49:39;;;;;;;;;;;;;;;23.87;45.27;94489.22;6121497;19;1640;-64
2022/11/20 09:51:49;;;;;;;;;;;;;;;23.83;45.42;94480.84;6125475;19;1805;-64
2022/11/20 09:53:57;;;;;;;;;;;;;;;23.78;45.51;94491.50;6092833;19;1342;-64
2022/11/20 09:56:03;;;;;;;;;;;;;;;23.83;45.35;94493.47;6118959;19;1033;-64
2022/11/20 09:58:08;;;;;;;;;;;;;;;23.83;45.45;94488.09;6118802;19;1049;-66
2022/11/20 10:00:13;;;;;;;;;;;;;;;23.88;44.96;94488.97;6118200;19;978;-64
2022/11/20 10:02:27;;;;;;;;;;;;;;;23.87;45.43;94495.41;6120299;19;1922;-64
2022/11/20 10:04:32;;;;;;;;;;;;;;;23.90;44.86;94486.88;6094531;19;1749;-64
2022/11/20 10:06:37;;;;;;;;;;;;;;;23.89;45.35;94461.09;6120005;19;1847;-64
2022/11/20 10:08:44;;;;;;;;;;;;;;;23.94;44.92;94424.66;6118908;19;2035;-64
2022/11/20 10:10:49;;;;;;;;;;;;;;;23.91;45.25;94434.81;6120525;19;1946;-64
2022/11/20 10:12:59;;;;;;;;;;;;;;;23.92;44.94;94449.84;6120607;19;1855;-64
2022/11/20 10:15:14;;;;;;;;;;;;;;;23.90;44.98;94449.31;6118935;19;1006;-64
2022/11/20 10:17:24;;;;;;;;;;;;;;;23.89;45.22;94436.94;6107899;19;1806;-63
2022/11/20 10:19:36;;;;;;;;;;;;;;;23.91;44.87;94428.66;6122837;19;1750;-64
2022/11/20 10:21:43;;;;;;;;;;;;;;;23.88;45.24;94432.63;6122629;19;2249;-63
2022/11/20 10:23:56;;;;;;;;;;;;;;;23.87;45.34;94431.03;6122135;19;1886;-66
2022/11/20 10:26:03;;;;;;;;;;;;;;;23.89;45.11;94434.25;6123341;19;2238;-66
2022/11/20 10:28:17;;;;;;;;;;;;;;;23.90;45.31;94422.47;6097134;19;1684;-65
2022/11/20 10:30:24;;;;;;;;;;;;;;;23.83;45.05;94418.34;6118401;19;1742;-66
2022/11/20 10:32:32;;;;;;;;;;;;;;;23.83;45.38;94426.38;6120793;19;1673;-64
2022/11/20 10:34:42;;;;;;;;;;;;;;;23.87;45.23;94430.19;6120306;19;1838;-62
2022/11/20 10:36:47;;;;;;;;;;;;;;;23.91;45.36;94429.47;6125071;19;1681;-64
2022/11/20 10:38:57;;;;;;;;;;;;;;;23.92;45.06;94432.94;6107591;19;1975;-63
2022/11/20 10:43:20;;;;;;;;;;;;;;;23.91;45.25;94445.56;6120659;19;1856;-66
2022/11/20 10:45:31;;;;;;;;;;;;;;;23.72;45.12;94448.75;6117514;19;1144;-64
2022/11/20 10:47:34;;;;;;;;;;;;;;;23.18;45.04;94446.50;6116675;19;1914;-64
2022/11/20 10:49:37;;;;;;;;;;;;;;;23.17;45.27;94451.06;6121806;19;1924;-64
2022/11/20 10:51:46;;;;;;;;;;;;;;;23.04;45.10;94447.88;6094555;19;2020;-65
2022/11/20 10:54:07;;;;;;;;;;;;;;;23.08;44.89;94443.63;6121125;19;1927;-64
2022/11/20 10:56:17;;;;;;;;;;;;;;;23.04;45.06;94429.09;6121295;19;1925;-64
2022/11/20 10:58:24;;;;;;;;;;;;;;;23.06;44.93;94459.16;6122300;19;1893;-64
2022/11/20 11:00:28;;;;;;;;;;;;;;;22.68;44.89;94455.19;6119267;19;1913;-63
2022/11/20 11:02:35;;;;;;;;;;;;;;;22.60;44.04;94440.34;6094161;19;2159;-63
2022/11/20 11:04:40;;;;;;;;;;;;;;;22.51;44.85;94442.56;6121377;19;1989;-64
2022/11/20 11:06:46;;;;;;;;;;;;;;;22.55;44.75;94485.75;6120649;19;2173;-63
2022/11/20 11:08:51;;;;;;;;;;;;;;;22.63;44.18;94492.59;6120440;19;1872;-63